sensor_id;sensor_type;location;lat;lon;timestamp;P1;durP1;ratioP1;P2;durP2;ratioP2
42244;SDS011;27912;51.828;5.688;2023-05-24T00:01:35;9.73;;;1.15;;
42244;SDS011;27912;51.828;5.688;2023-05-24T00:04:01;14.85;;;1.25;;
42244;SDS011;27912;51.828;5.688;2023-05-24T00:06:27;9.73;;;0.85;;
42244;SDS011;27912;51.828;5.688;2023-05-24T00:08:53;10.20;;;1.08;;
42244;SDS011;27912;51.828;5.688;2023-05-24T00:11:19;13.50;;;1.23;;
42244;SDS011;27912;51.828;5.688;2023-05-24T00:13:46;9.10;;;0.95;;
42244;SDS011;27912;51.828;5.688;2023-05-24T00:16:12;9.40;;;1.20;;
42244;SDS011;27912;51.828;5.688;2023-05-24T00:18:37;10.68;;;1.27;;
42244;SDS011;27912;51.828;5.688;2023-05-24T00:21:05;7.45;;;1.23;;
42244;SDS011;27912;51.828;5.688;2023-05-24T00:23:32;10.35;;;1.52;;
42244;SDS011;27912;51.828;5.688;2023-05-24T00:25:58;11.75;;;1.75;;
42244;SDS011;27912;51.828;5.688;2023-05-24T00:28:23;12.95;;;1.55;;
42244;SDS011;27912;51.828;5.688;2023-05-24T00:30:49;11.55;;;1.60;;
42244;SDS011;27912;51.828;5.688;2023-05-24T00:33:15;14.45;;;1.88;;
42244;SDS011;27912;51.828;5.688;2023-05-24T00:35:40;13.48;;;1.85;;
42244;SDS011;27912;51.828;5.688;2023-05-24T00:38:06;15.30;;;2.35;;
42244;SDS011;27912;51.828;5.688;2023-05-24T00:40:31;10.10;;;2.10;;
42244;SDS011;27912;51.828;5.688;2023-05-24T00:42:57;11.27;;;1.85;;
42244;SDS011;27912;51.828;5.688;2023-05-24T00:45:22;10.35;;;1.70;;
42244;SDS011;27912;51.828;5.688;2023-05-24T00:47:48;15.02;;;2.15;;
42244;SDS011;27912;51.828;5.688;2023-05-24T00:50:13;12.40;;;2.67;;
42244;SDS011;27912;51.828;5.688;2023-05-24T00:52:41;13.55;;;2.13;;
42244;SDS011;27912;51.828;5.688;2023-05-24T00:55:07;13.90;;;3.22;;
42244;SDS011;27912;51.828;5.688;2023-05-24T00:57:35;12.52;;;1.80;;
42244;SDS011;27912;51.828;5.688;2023-05-24T01:00:01;12.27;;;2.10;;
42244;SDS011;27912;51.828;5.688;2023-05-24T01:02:27;13.20;;;2.30;;
42244;SDS011;27912;51.828;5.688;2023-05-24T01:04:53;17.27;;;2.33;;
42244;SDS011;27912;51.828;5.688;2023-05-24T01:07:32;14.23;;;2.67;;
42244;SDS011;27912;51.828;5.688;2023-05-24T01:10:19;16.48;;;2.38;;
42244;SDS011;27912;51.828;5.688;2023-05-24T01:13:32;12.20;;;2.25;;
42244;SDS011;27912;51.828;5.688;2023-05-24T01:16:16;13.15;;;2.42;;
42244;SDS011;27912;51.828;5.688;2023-05-24T01:19:01;10.55;;;2.30;;
42244;SDS011;27912;51.828;5.688;2023-05-24T01:21:52;11.77;;;2.20;;
42244;SDS011;27912;51.828;5.688;2023-05-24T01:27:27;10.10;;;2.50;;
42244;SDS011;27912;51.828;5.688;2023-05-24T01:29:54;11.35;;;2.53;;
42244;SDS011;27912;51.828;5.688;2023-05-24T01:32:21;9.68;;;2.63;;
42244;SDS011;27912;51.828;5.688;2023-05-24T01:34:47;15.80;;;2.45;;
42244;SDS011;27912;51.828;5.688;2023-05-24T01:37:12;10.77;;;2.58;;
42244;SDS011;27912;51.828;5.688;2023-05-24T01:39:38;15.23;;;3.35;;
42244;SDS011;27912;51.828;5.688;2023-05-24T01:42:12;10.85;;;2.85;;
42244;SDS011;27912;51.828;5.688;2023-05-24T01:44:46;10.77;;;2.40;;
42244;SDS011;27912;51.828;5.688;2023-05-24T01:49:53;14.63;;;3.08;;
42244;SDS011;27912;51.828;5.688;2023-05-24T01:52:21;8.35;;;2.35;;
42244;SDS011;27912;51.828;5.688;2023-05-24T01:54:51;15.00;;;3.15;;
42244;SDS011;27912;51.828;5.688;2023-05-24T01:57:18;8.65;;;2.90;;
42244;SDS011;27912;51.828;5.688;2023-05-24T01:59:47;13.25;;;3.92;;
42244;SDS011;27912;51.828;5.688;2023-05-24T02:02:14;10.95;;;3.05;;
42244;SDS011;27912;51.828;5.688;2023-05-24T02:04:39;15.85;;;3.55;;
42244;SDS011;27912;51.828;5.688;2023-05-24T02:07:05;10.27;;;3.13;;
42244;SDS011;27912;51.828;5.688;2023-05-24T02:09:31;14.30;;;3.20;;
42244;SDS011;27912;51.828;5.688;2023-05-24T02:11:57;10.25;;;2.75;;
42244;SDS011;27912;51.828;5.688;2023-05-24T02:14:22;12.13;;;3.15;;
42244;SDS011;27912;51.828;5.688;2023-05-24T02:16:48;15.52;;;3.20;;
42244;SDS011;27912;51.828;5.688;2023-05-24T02:19:14;9.50;;;2.83;;
42244;SDS011;27912;51.828;5.688;2023-05-24T02:21:41;14.80;;;3.17;;
42244;SDS011;27912;51.828;5.688;2023-05-24T02:24:07;22.42;;;5.53;;
42244;SDS011;27912;51.828;5.688;2023-05-24T02:26:35;15.77;;;3.75;;
42244;SDS011;27912;51.828;5.688;2023-05-24T02:29:01;11.00;;;2.80;;
42244;SDS011;27912;51.828;5.688;2023-05-24T02:31:27;10.02;;;2.92;;
42244;SDS011;27912;51.828;5.688;2023-05-24T02:33:54;17.20;;;3.72;;
42244;SDS011;27912;51.828;5.688;2023-05-24T02:36:20;12.63;;;3.20;;
42244;SDS011;27912;51.828;5.688;2023-05-24T02:38:48;11.45;;;3.00;;
42244;SDS011;27912;51.828;5.688;2023-05-24T02:41:16;12.38;;;3.10;;
42244;SDS011;27912;51.828;5.688;2023-05-24T02:43:43;7.53;;;2.20;;
42244;SDS011;27912;51.828;5.688;2023-05-24T02:46:09;8.75;;;2.22;;
42244;SDS011;27912;51.828;5.688;2023-05-24T02:48:35;7.45;;;2.80;;
42244;SDS011;27912;51.828;5.688;2023-05-24T02:51:00;11.32;;;2.92;;
42244;SDS011;27912;51.828;5.688;2023-05-24T02:53:27;12.00;;;3.08;;
42244;SDS011;27912;51.828;5.688;2023-05-24T02:55:53;13.20;;;3.55;;
42244;SDS011;27912;51.828;5.688;2023-05-24T02:58:19;17.67;;;3.35;;
42244;SDS011;27912;51.828;5.688;2023-05-24T03:00:44;11.48;;;2.70;;
42244;SDS011;27912;51.828;5.688;2023-05-24T03:03:10;13.80;;;2.92;;
42244;SDS011;27912;51.828;5.688;2023-05-24T03:05:36;11.15;;;3.08;;
42244;SDS011;27912;51.828;5.688;2023-05-24T03:08:02;9.90;;;2.85;;
42244;SDS011;27912;51.828;5.688;2023-05-24T03:10:28;17.55;;;3.60;;
42244;SDS011;27912;51.828;5.688;2023-05-24T03:12:53;13.85;;;3.33;;
42244;SDS011;27912;51.828;5.688;2023-05-24T03:15:19;12.90;;;3.08;;
42244;SDS011;27912;51.828;5.688;2023-05-24T03:17:45;10.43;;;2.50;;
42244;SDS011;27912;51.828;5.688;2023-05-24T03:20:10;14.27;;;3.55;;
42244;SDS011;27912;51.828;5.688;2023-05-24T03:22:36;15.15;;;2.67;;
42244;SDS011;27912;51.828;5.688;2023-05-24T03:25:02;12.65;;;3.45;;
42244;SDS011;27912;51.828;5.688;2023-05-24T03:27:28;16.10;;;4.03;;
42244;SDS011;27912;51.828;5.688;2023-05-24T03:29:53;18.30;;;2.97;;
42244;SDS011;27912;51.828;5.688;2023-05-24T03:32:19;12.25;;;2.85;;
42244;SDS011;27912;51.828;5.688;2023-05-24T03:34:45;16.88;;;2.95;;
42244;SDS011;27912;51.828;5.688;2023-05-24T03:37:10;16.50;;;3.92;;
42244;SDS011;27912;51.828;5.688;2023-05-24T03:39:36;16.15;;;2.95;;
42244;SDS011;27912;51.828;5.688;2023-05-24T03:42:01;12.52;;;3.42;;
42244;SDS011;27912;51.828;5.688;2023-05-24T03:44:27;13.20;;;3.47;;
42244;SDS011;27912;51.828;5.688;2023-05-24T03:46:52;11.85;;;3.92;;
42244;SDS011;27912;51.828;5.688;2023-05-24T03:49:18;12.50;;;3.70;;
42244;SDS011;27912;51.828;5.688;2023-05-24T03:51:43;13.63;;;2.92;;
42244;SDS011;27912;51.828;5.688;2023-05-24T03:54:09;15.10;;;3.97;;
42244;SDS011;27912;51.828;5.688;2023-05-24T03:56:35;17.13;;;3.13;;
42244;SDS011;27912;51.828;5.688;2023-05-24T03:59:01;15.73;;;3.95;;
42244;SDS011;27912;51.828;5.688;2023-05-24T04:01:28;12.73;;;3.25;;
42244;SDS011;27912;51.828;5.688;2023-05-24T04:03:55;14.07;;;3.70;;
42244;SDS011;27912;51.828;5.688;2023-05-24T04:06:21;21.13;;;3.95;;
42244;SDS011;27912;51.828;5.688;2023-05-24T04:08:53;16.83;;;3.70;;
42244;SDS011;27912;51.828;5.688;2023-05-24T04:11:22;9.82;;;3.17;;
42244;SDS011;27912;51.828;5.688;2023-05-24T04:13:48;15.13;;;3.33;;
42244;SDS011;27912;51.828;5.688;2023-05-24T04:16:17;11.95;;;3.80;;
42244;SDS011;27912;51.828;5.688;2023-05-24T04:18:42;11.85;;;3.42;;
42244;SDS011;27912;51.828;5.688;2023-05-24T04:21:09;11.07;;;3.38;;
42244;SDS011;27912;51.828;5.688;2023-05-24T04:23:35;15.48;;;4.85;;
42244;SDS011;27912;51.828;5.688;2023-05-24T04:26:00;14.00;;;3.10;;
42244;SDS011;27912;51.828;5.688;2023-05-24T04:28:26;11.90;;;3.13;;
42244;SDS011;27912;51.828;5.688;2023-05-24T04:30:51;19.48;;;4.10;;
42244;SDS011;27912;51.828;5.688;2023-05-24T04:33:17;14.70;;;4.30;;
42244;SDS011;27912;51.828;5.688;2023-05-24T04:35:43;13.38;;;3.75;;
42244;SDS011;27912;51.828;5.688;2023-05-24T04:38:09;24.20;;;4.38;;
42244;SDS011;27912;51.828;5.688;2023-05-24T04:40:36;20.67;;;4.03;;
42244;SDS011;27912;51.828;5.688;2023-05-24T04:43:02;20.48;;;4.95;;
42244;SDS011;27912;51.828;5.688;2023-05-24T04:45:28;18.90;;;4.65;;
42244;SDS011;27912;51.828;5.688;2023-05-24T04:47:54;22.00;;;4.80;;
42244;SDS011;27912;51.828;5.688;2023-05-24T04:50:21;17.00;;;4.50;;
42244;SDS011;27912;51.828;5.688;2023-05-24T04:52:46;19.92;;;4.90;;
42244;SDS011;27912;51.828;5.688;2023-05-24T04:55:12;20.83;;;4.90;;
42244;SDS011;27912;51.828;5.688;2023-05-24T04:57:37;23.75;;;5.32;;
42244;SDS011;27912;51.828;5.688;2023-05-24T05:00:03;16.13;;;5.10;;
42244;SDS011;27912;51.828;5.688;2023-05-24T05:02:31;23.50;;;6.40;;
42244;SDS011;27912;51.828;5.688;2023-05-24T05:04:56;18.70;;;5.28;;
42244;SDS011;27912;51.828;5.688;2023-05-24T05:07:22;15.82;;;4.88;;
42244;SDS011;27912;51.828;5.688;2023-05-24T05:09:47;22.73;;;5.20;;
42244;SDS011;27912;51.828;5.688;2023-05-24T05:12:13;14.90;;;4.68;;
42244;SDS011;27912;51.828;5.688;2023-05-24T05:14:39;23.20;;;4.75;;
42244;SDS011;27912;51.828;5.688;2023-05-24T05:17:04;16.02;;;3.75;;
42244;SDS011;27912;51.828;5.688;2023-05-24T05:19:30;19.70;;;3.80;;
42244;SDS011;27912;51.828;5.688;2023-05-24T05:21:55;12.77;;;3.20;;
42244;SDS011;27912;51.828;5.688;2023-05-24T05:24:21;20.45;;;3.58;;
42244;SDS011;27912;51.828;5.688;2023-05-24T05:26:46;25.58;;;4.30;;
42244;SDS011;27912;51.828;5.688;2023-05-24T05:29:12;16.83;;;3.30;;
42244;SDS011;27912;51.828;5.688;2023-05-24T05:31:38;12.40;;;2.70;;
42244;SDS011;27912;51.828;5.688;2023-05-24T05:34:03;20.35;;;3.63;;
42244;SDS011;27912;51.828;5.688;2023-05-24T05:36:33;13.88;;;2.80;;
42244;SDS011;27912;51.828;5.688;2023-05-24T05:39:04;16.75;;;3.60;;
42244;SDS011;27912;51.828;5.688;2023-05-24T05:41:37;21.95;;;4.53;;
42244;SDS011;27912;51.828;5.688;2023-05-24T05:44:03;11.63;;;3.10;;
42244;SDS011;27912;51.828;5.688;2023-05-24T05:46:29;19.20;;;3.60;;
42244;SDS011;27912;51.828;5.688;2023-05-24T05:48:55;13.60;;;3.58;;
42244;SDS011;27912;51.828;5.688;2023-05-24T05:51:20;22.35;;;3.10;;
42244;SDS011;27912;51.828;5.688;2023-05-24T05:53:46;19.17;;;3.97;;
42244;SDS011;27912;51.828;5.688;2023-05-24T05:56:11;18.85;;;4.07;;
42244;SDS011;27912;51.828;5.688;2023-05-24T05:58:37;14.18;;;2.95;;
42244;SDS011;27912;51.828;5.688;2023-05-24T06:01:13;19.65;;;3.80;;
42244;SDS011;27912;51.828;5.688;2023-05-24T06:03:39;23.17;;;3.42;;
42244;SDS011;27912;51.828;5.688;2023-05-24T06:06:05;22.20;;;3.67;;
42244;SDS011;27912;51.828;5.688;2023-05-24T06:08:30;23.90;;;3.60;;
42244;SDS011;27912;51.828;5.688;2023-05-24T06:10:59;26.10;;;3.33;;
42244;SDS011;27912;51.828;5.688;2023-05-24T06:13:42;23.08;;;3.28;;
42244;SDS011;27912;51.828;5.688;2023-05-24T06:16:07;30.40;;;3.80;;
42244;SDS011;27912;51.828;5.688;2023-05-24T06:18:33;21.77;;;3.42;;
42244;SDS011;27912;51.828;5.688;2023-05-24T06:21:00;26.95;;;4.63;;
42244;SDS011;27912;51.828;5.688;2023-05-24T06:26:14;27.05;;;4.22;;
42244;SDS011;27912;51.828;5.688;2023-05-24T06:28:40;26.90;;;4.55;;
42244;SDS011;27912;51.828;5.688;2023-05-24T06:31:05;27.65;;;4.93;;
42244;SDS011;27912;51.828;5.688;2023-05-24T06:33:31;24.48;;;3.38;;
42244;SDS011;27912;51.828;5.688;2023-05-24T06:35:56;18.80;;;3.58;;
42244;SDS011;27912;51.828;5.688;2023-05-24T06:38:22;19.92;;;4.20;;
42244;SDS011;27912;51.828;5.688;2023-05-24T06:40:48;18.13;;;3.08;;
42244;SDS011;27912;51.828;5.688;2023-05-24T06:43:13;14.75;;;2.55;;
42244;SDS011;27912;51.828;5.688;2023-05-24T06:45:40;17.98;;;3.00;;
42244;SDS011;27912;51.828;5.688;2023-05-24T06:48:05;20.02;;;3.50;;
42244;SDS011;27912;51.828;5.688;2023-05-24T06:50:31;18.60;;;3.38;;
42244;SDS011;27912;51.828;5.688;2023-05-24T06:52:56;22.63;;;3.35;;
42244;SDS011;27912;51.828;5.688;2023-05-24T06:55:22;16.83;;;3.03;;
42244;SDS011;27912;51.828;5.688;2023-05-24T06:57:47;15.10;;;3.28;;
42244;SDS011;27912;51.828;5.688;2023-05-24T07:00:13;19.95;;;4.28;;
42244;SDS011;27912;51.828;5.688;2023-05-24T07:02:39;21.05;;;3.00;;
42244;SDS011;27912;51.828;5.688;2023-05-24T07:05:05;21.05;;;3.45;;
42244;SDS011;27912;51.828;5.688;2023-05-24T07:07:36;20.02;;;3.78;;
42244;SDS011;27912;51.828;5.688;2023-05-24T07:10:02;22.33;;;2.92;;
42244;SDS011;27912;51.828;5.688;2023-05-24T07:12:28;20.30;;;4.93;;
42244;SDS011;27912;51.828;5.688;2023-05-24T07:14:56;15.05;;;2.70;;
42244;SDS011;27912;51.828;5.688;2023-05-24T07:17:22;17.55;;;3.42;;
42244;SDS011;27912;51.828;5.688;2023-05-24T07:19:47;15.43;;;3.50;;
42244;SDS011;27912;51.828;5.688;2023-05-24T07:22:13;14.15;;;2.88;;
42244;SDS011;27912;51.828;5.688;2023-05-24T07:24:38;12.73;;;2.70;;
42244;SDS011;27912;51.828;5.688;2023-05-24T07:27:04;18.30;;;2.75;;
42244;SDS011;27912;51.828;5.688;2023-05-24T07:29:29;16.40;;;2.83;;
42244;SDS011;27912;51.828;5.688;2023-05-24T07:31:55;16.20;;;2.58;;
42244;SDS011;27912;51.828;5.688;2023-05-24T07:34:21;12.40;;;1.88;;
42244;SDS011;27912;51.828;5.688;2023-05-24T07:36:51;11.45;;;2.35;;
42244;SDS011;27912;51.828;5.688;2023-05-24T07:39:17;14.15;;;3.13;;
42244;SDS011;27912;51.828;5.688;2023-05-24T07:41:43;19.20;;;2.80;;
42244;SDS011;27912;51.828;5.688;2023-05-24T07:44:09;15.10;;;3.05;;
42244;SDS011;27912;51.828;5.688;2023-05-24T07:46:36;19.60;;;3.55;;
42244;SDS011;27912;51.828;5.688;2023-05-24T07:49:01;16.00;;;2.72;;
42244;SDS011;27912;51.828;5.688;2023-05-24T07:51:27;12.73;;;2.38;;
42244;SDS011;27912;51.828;5.688;2023-05-24T07:53:56;17.02;;;3.15;;
42244;SDS011;27912;51.828;5.688;2023-05-24T07:56:21;16.85;;;3.20;;
42244;SDS011;27912;51.828;5.688;2023-05-24T07:58:47;18.98;;;3.22;;
42244;SDS011;27912;51.828;5.688;2023-05-24T08:01:15;15.23;;;3.80;;
42244;SDS011;27912;51.828;5.688;2023-05-24T08:03:42;16.75;;;2.85;;
42244;SDS011;27912;51.828;5.688;2023-05-24T08:06:08;16.98;;;3.10;;
42244;SDS011;27912;51.828;5.688;2023-05-24T08:08:37;17.42;;;2.45;;
42244;SDS011;27912;51.828;5.688;2023-05-24T08:11:03;11.00;;;2.67;;
42244;SDS011;27912;51.828;5.688;2023-05-24T08:13:29;19.23;;;3.13;;
42244;SDS011;27912;51.828;5.688;2023-05-24T08:16:02;11.95;;;3.13;;
42244;SDS011;27912;51.828;5.688;2023-05-24T08:18:28;16.40;;;3.28;;
42244;SDS011;27912;51.828;5.688;2023-05-24T08:20:54;15.13;;;3.10;;
42244;SDS011;27912;51.828;5.688;2023-05-24T08:23:19;16.35;;;3.10;;
42244;SDS011;27912;51.828;5.688;2023-05-24T08:25:45;18.60;;;3.38;;
42244;SDS011;27912;51.828;5.688;2023-05-24T08:28:11;16.30;;;4.22;;
42244;SDS011;27912;51.828;5.688;2023-05-24T08:30:36;19.05;;;3.35;;
42244;SDS011;27912;51.828;5.688;2023-05-24T08:33:02;11.70;;;2.67;;
42244;SDS011;27912;51.828;5.688;2023-05-24T08:35:28;87.03;;;10.15;;
42244;SDS011;27912;51.828;5.688;2023-05-24T08:37:53;56.45;;;5.75;;
42244;SDS011;27912;51.828;5.688;2023-05-24T08:40:19;13.88;;;2.28;;
42244;SDS011;27912;51.828;5.688;2023-05-24T08:42:45;71.40;;;8.15;;
42244;SDS011;27912;51.828;5.688;2023-05-24T08:45:12;17.75;;;2.90;;
42244;SDS011;27912;51.828;5.688;2023-05-24T08:47:38;19.52;;;3.22;;
42244;SDS011;27912;51.828;5.688;2023-05-24T08:50:05;12.45;;;1.90;;
42244;SDS011;27912;51.828;5.688;2023-05-24T08:52:32;21.20;;;2.22;;
42244;SDS011;27912;51.828;5.688;2023-05-24T08:54:58;15.32;;;2.70;;
42244;SDS011;27912;51.828;5.688;2023-05-24T08:57:27;41.58;;;4.75;;
42244;SDS011;27912;51.828;5.688;2023-05-24T08:59:55;16.23;;;2.60;;
42244;SDS011;27912;51.828;5.688;2023-05-24T09:02:21;14.60;;;2.67;;
42244;SDS011;27912;51.828;5.688;2023-05-24T09:04:48;14.38;;;2.38;;
42244;SDS011;27912;51.828;5.688;2023-05-24T09:07:16;10.52;;;1.75;;
42244;SDS011;27912;51.828;5.688;2023-05-24T09:12:34;13.25;;;2.05;;
42244;SDS011;27912;51.828;5.688;2023-05-24T09:15:01;14.38;;;2.10;;
42244;SDS011;27912;51.828;5.688;2023-05-24T09:17:29;8.38;;;1.83;;
42244;SDS011;27912;51.828;5.688;2023-05-24T09:19:56;9.05;;;2.20;;
42244;SDS011;27912;51.828;5.688;2023-05-24T09:22:24;15.88;;;2.53;;
42244;SDS011;27912;51.828;5.688;2023-05-24T09:24:51;7.28;;;1.67;;
42244;SDS011;27912;51.828;5.688;2023-05-24T09:27:21;16.60;;;2.70;;
42244;SDS011;27912;51.828;5.688;2023-05-24T09:29:47;8.15;;;1.90;;
42244;SDS011;27912;51.828;5.688;2023-05-24T09:32:15;11.15;;;1.70;;
42244;SDS011;27912;51.828;5.688;2023-05-24T09:34:42;12.73;;;1.90;;
42244;SDS011;27912;51.828;5.688;2023-05-24T09:37:13;10.90;;;1.70;;
42244;SDS011;27912;51.828;5.688;2023-05-24T09:39:42;12.25;;;1.70;;
42244;SDS011;27912;51.828;5.688;2023-05-24T09:42:13;15.10;;;2.40;;
42244;SDS011;27912;51.828;5.688;2023-05-24T09:44:40;9.63;;;1.63;;
42244;SDS011;27912;51.828;5.688;2023-05-24T09:47:06;14.13;;;2.05;;
42244;SDS011;27912;51.828;5.688;2023-05-24T09:49:34;12.18;;;2.05;;
42244;SDS011;27912;51.828;5.688;2023-05-24T09:52:01;11.45;;;1.98;;
42244;SDS011;27912;51.828;5.688;2023-05-24T09:54:27;13.02;;;2.53;;
42244;SDS011;27912;51.828;5.688;2023-05-24T09:56:52;14.20;;;2.05;;
42244;SDS011;27912;51.828;5.688;2023-05-24T09:59:18;8.68;;;1.77;;
42244;SDS011;27912;51.828;5.688;2023-05-24T10:01:44;9.35;;;1.90;;
42244;SDS011;27912;51.828;5.688;2023-05-24T10:04:10;11.90;;;2.72;;
42244;SDS011;27912;51.828;5.688;2023-05-24T10:06:37;10.48;;;1.70;;
42244;SDS011;27912;51.828;5.688;2023-05-24T10:09:06;8.18;;;1.70;;
42244;SDS011;27912;51.828;5.688;2023-05-24T10:11:34;15.70;;;2.60;;
42244;SDS011;27912;51.828;5.688;2023-05-24T10:14:04;10.77;;;1.52;;
42244;SDS011;27912;51.828;5.688;2023-05-24T10:16:33;10.93;;;1.67;;
42244;SDS011;27912;51.828;5.688;2023-05-24T10:19:01;11.52;;;2.10;;
42244;SDS011;27912;51.828;5.688;2023-05-24T10:21:28;11.98;;;1.90;;
42244;SDS011;27912;51.828;5.688;2023-05-24T10:23:56;12.80;;;2.15;;
42244;SDS011;27912;51.828;5.688;2023-05-24T10:26:24;13.38;;;1.83;;
42244;SDS011;27912;51.828;5.688;2023-05-24T10:28:54;16.02;;;2.65;;
42244;SDS011;27912;51.828;5.688;2023-05-24T10:31:24;10.05;;;1.40;;
42244;SDS011;27912;51.828;5.688;2023-05-24T10:33:54;11.15;;;1.85;;
42244;SDS011;27912;51.828;5.688;2023-05-24T10:36:22;14.43;;;2.58;;
42244;SDS011;27912;51.828;5.688;2023-05-24T10:38:50;11.90;;;2.00;;
42244;SDS011;27912;51.828;5.688;2023-05-24T10:41:16;12.45;;;2.33;;
42244;SDS011;27912;51.828;5.688;2023-05-24T10:43:44;12.68;;;1.63;;
42244;SDS011;27912;51.828;5.688;2023-05-24T10:46:10;7.63;;;1.20;;
42244;SDS011;27912;51.828;5.688;2023-05-24T10:48:40;14.43;;;1.92;;
42244;SDS011;27912;51.828;5.688;2023-05-24T10:53:56;11.05;;;1.15;;
42244;SDS011;27912;51.828;5.688;2023-05-24T10:56:22;9.13;;;1.33;;
42244;SDS011;27912;51.828;5.688;2023-05-24T11:01:28;7.28;;;1.30;;
42244;SDS011;27912;51.828;5.688;2023-05-24T11:04:08;14.43;;;2.35;;
42244;SDS011;27912;51.828;5.688;2023-05-24T11:06:55;10.60;;;1.20;;
42244;SDS011;27912;51.828;5.688;2023-05-24T11:09:25;8.95;;;1.52;;
42244;SDS011;27912;51.828;5.688;2023-05-24T11:11:56;8.60;;;1.70;;
42244;SDS011;27912;51.828;5.688;2023-05-24T11:14:26;10.45;;;1.52;;
42244;SDS011;27912;51.828;5.688;2023-05-24T11:16:53;13.50;;;1.70;;
42244;SDS011;27912;51.828;5.688;2023-05-24T11:19:23;11.02;;;2.05;;
42244;SDS011;27912;51.828;5.688;2023-05-24T11:21:58;10.75;;;1.33;;
42244;SDS011;27912;51.828;5.688;2023-05-24T11:24:25;8.23;;;1.67;;
42244;SDS011;27912;51.828;5.688;2023-05-24T11:26:51;10.20;;;1.65;;
42244;SDS011;27912;51.828;5.688;2023-05-24T11:29:18;9.13;;;1.27;;
42244;SDS011;27912;51.828;5.688;2023-05-24T11:31:59;6.63;;;1.60;;
42244;SDS011;27912;51.828;5.688;2023-05-24T11:34:31;10.65;;;1.92;;
42244;SDS011;27912;51.828;5.688;2023-05-24T11:36:57;7.57;;;1.70;;
42244;SDS011;27912;51.828;5.688;2023-05-24T11:39:30;8.52;;;1.48;;
42244;SDS011;27912;51.828;5.688;2023-05-24T11:41:56;7.93;;;1.63;;
42244;SDS011;27912;51.828;5.688;2023-05-24T11:44:22;6.25;;;1.50;;
42244;SDS011;27912;51.828;5.688;2023-05-24T11:46:55;6.72;;;1.33;;
42244;SDS011;27912;51.828;5.688;2023-05-24T11:51:47;10.77;;;1.67;;
42244;SDS011;27912;51.828;5.688;2023-05-24T11:54:12;9.77;;;1.48;;
42244;SDS011;27912;51.828;5.688;2023-05-24T11:56:38;10.55;;;1.48;;
42244;SDS011;27912;51.828;5.688;2023-05-24T11:59:17;13.13;;;1.95;;
42244;SDS011;27912;51.828;5.688;2023-05-24T12:02:11;7.30;;;1.40;;
42244;SDS011;27912;51.828;5.688;2023-05-24T12:04:35;9.55;;;2.13;;
42244;SDS011;27912;51.828;5.688;2023-05-24T12:07:01;6.95;;;1.13;;
42244;SDS011;27912;51.828;5.688;2023-05-24T12:09:27;13.18;;;2.13;;
42244;SDS011;27912;51.828;5.688;2023-05-24T12:11:53;12.32;;;1.67;;
42244;SDS011;27912;51.828;5.688;2023-05-24T12:14:23;9.48;;;2.38;;
42244;SDS011;27912;51.828;5.688;2023-05-24T12:16:53;8.73;;;2.05;;
42244;SDS011;27912;51.828;5.688;2023-05-24T12:19:23;7.72;;;2.00;;
42244;SDS011;27912;51.828;5.688;2023-05-24T12:21:54;8.10;;;1.33;;
42244;SDS011;27912;51.828;5.688;2023-05-24T12:24:21;8.88;;;1.52;;
42244;SDS011;27912;51.828;5.688;2023-05-24T12:26:48;8.02;;;1.45;;
42244;SDS011;27912;51.828;5.688;2023-05-24T12:29:14;10.85;;;1.95;;
42244;SDS011;27912;51.828;5.688;2023-05-24T12:31:42;12.18;;;1.63;;
42244;SDS011;27912;51.828;5.688;2023-05-24T12:34:12;12.02;;;3.38;;
42244;SDS011;27912;51.828;5.688;2023-05-24T12:36:39;13.73;;;2.42;;
42244;SDS011;27912;51.828;5.688;2023-05-24T12:41:42;10.27;;;1.50;;
42244;SDS011;27912;51.828;5.688;2023-05-24T12:44:09;7.60;;;1.20;;
42244;SDS011;27912;51.828;5.688;2023-05-24T12:46:40;12.27;;;1.70;;
42244;SDS011;27912;51.828;5.688;2023-05-24T12:49:06;8.68;;;1.60;;
42244;SDS011;27912;51.828;5.688;2023-05-24T12:51:31;9.85;;;1.38;;
42244;SDS011;27912;51.828;5.688;2023-05-24T12:53:57;8.10;;;1.30;;
42244;SDS011;27912;51.828;5.688;2023-05-24T12:56:22;6.32;;;1.55;;
42244;SDS011;27912;51.828;5.688;2023-05-24T12:58:51;10.77;;;2.53;;
42244;SDS011;27912;51.828;5.688;2023-05-24T13:01:17;9.70;;;1.73;;
42244;SDS011;27912;51.828;5.688;2023-05-24T13:03:42;6.75;;;1.67;;
42244;SDS011;27912;51.828;5.688;2023-05-24T13:06:08;8.50;;;1.92;;
42244;SDS011;27912;51.828;5.688;2023-05-24T13:08:33;6.40;;;1.38;;
42244;SDS011;27912;51.828;5.688;2023-05-24T13:10:59;9.52;;;1.58;;
42244;SDS011;27912;51.828;5.688;2023-05-24T13:13:24;8.02;;;2.03;;
42244;SDS011;27912;51.828;5.688;2023-05-24T13:15:52;7.68;;;2.17;;
42244;SDS011;27912;51.828;5.688;2023-05-24T13:18:18;7.20;;;1.30;;
42244;SDS011;27912;51.828;5.688;2023-05-24T13:20:44;8.00;;;1.58;;
42244;SDS011;27912;51.828;5.688;2023-05-24T13:23:09;8.93;;;1.20;;
42244;SDS011;27912;51.828;5.688;2023-05-24T13:25:35;8.15;;;1.52;;
42244;SDS011;27912;51.828;5.688;2023-05-24T13:28:00;12.93;;;1.50;;
42244;SDS011;27912;51.828;5.688;2023-05-24T13:30:26;5.45;;;1.50;;
42244;SDS011;27912;51.828;5.688;2023-05-24T13:32:55;5.63;;;1.42;;
42244;SDS011;27912;51.828;5.688;2023-05-24T13:35:22;6.47;;;1.25;;
42244;SDS011;27912;51.828;5.688;2023-05-24T13:37:48;12.77;;;2.20;;
42244;SDS011;27912;51.828;5.688;2023-05-24T13:40:15;9.45;;;1.92;;
42244;SDS011;27912;51.828;5.688;2023-05-24T13:42:40;19.95;;;1.73;;
42244;SDS011;27912;51.828;5.688;2023-05-24T13:45:06;9.32;;;1.45;;
42244;SDS011;27912;51.828;5.688;2023-05-24T13:47:32;10.07;;;1.80;;
42244;SDS011;27912;51.828;5.688;2023-05-24T13:49:58;6.05;;;1.90;;
42244;SDS011;27912;51.828;5.688;2023-05-24T13:52:23;8.10;;;1.70;;
42244;SDS011;27912;51.828;5.688;2023-05-24T13:54:50;9.05;;;1.60;;
42244;SDS011;27912;51.828;5.688;2023-05-24T13:57:16;14.63;;;1.88;;
42244;SDS011;27912;51.828;5.688;2023-05-24T13:59:41;10.65;;;2.00;;
42244;SDS011;27912;51.828;5.688;2023-05-24T14:02:07;7.05;;;1.50;;
42244;SDS011;27912;51.828;5.688;2023-05-24T14:04:33;8.95;;;1.45;;
42244;SDS011;27912;51.828;5.688;2023-05-24T14:06:58;8.45;;;2.00;;
42244;SDS011;27912;51.828;5.688;2023-05-24T14:09:24;7.95;;;1.55;;
42244;SDS011;27912;51.828;5.688;2023-05-24T14:11:50;7.10;;;1.63;;
42244;SDS011;27912;51.828;5.688;2023-05-24T14:14:16;8.98;;;1.50;;
42244;SDS011;27912;51.828;5.688;2023-05-24T14:16:41;12.02;;;1.73;;
42244;SDS011;27912;51.828;5.688;2023-05-24T14:19:07;8.48;;;1.73;;
42244;SDS011;27912;51.828;5.688;2023-05-24T14:21:33;6.70;;;1.30;;
42244;SDS011;27912;51.828;5.688;2023-05-24T14:23:58;9.43;;;1.67;;
42244;SDS011;27912;51.828;5.688;2023-05-24T14:26:24;7.95;;;1.63;;
42244;SDS011;27912;51.828;5.688;2023-05-24T14:28:51;12.38;;;1.52;;
42244;SDS011;27912;51.828;5.688;2023-05-24T14:31:16;6.13;;;1.00;;
42244;SDS011;27912;51.828;5.688;2023-05-24T14:33:42;6.15;;;1.08;;
42244;SDS011;27912;51.828;5.688;2023-05-24T14:36:08;13.73;;;1.52;;
42244;SDS011;27912;51.828;5.688;2023-05-24T14:38:33;8.75;;;1.42;;
42244;SDS011;27912;51.828;5.688;2023-05-24T14:40:59;11.23;;;1.50;;
42244;SDS011;27912;51.828;5.688;2023-05-24T14:43:25;8.02;;;2.00;;
42244;SDS011;27912;51.828;5.688;2023-05-24T14:45:51;8.27;;;1.20;;
42244;SDS011;27912;51.828;5.688;2023-05-24T14:48:17;10.00;;;2.65;;
42244;SDS011;27912;51.828;5.688;2023-05-24T14:50:43;8.15;;;1.38;;
42244;SDS011;27912;51.828;5.688;2023-05-24T14:53:08;19.48;;;2.78;;
42244;SDS011;27912;51.828;5.688;2023-05-24T14:55:39;8.95;;;1.83;;
42244;SDS011;27912;51.828;5.688;2023-05-24T14:58:05;9.57;;;2.20;;
42244;SDS011;27912;51.828;5.688;2023-05-24T15:00:35;10.60;;;2.00;;